sensor_id;sensor_type;location;lat;lon;timestamp;P1;durP1;ratioP1;P2;durP2;ratioP2
74080;SDS011;62438;52.228;6.864;2022-10-19T00:00:45;16.05;;;6.32;;
74080;SDS011;62438;52.228;6.864;2022-10-19T00:02:46;22.10;;;5.82;;
74080;SDS011;62438;52.228;6.864;2022-10-19T00:04:46;23.38;;;6.03;;
74080;SDS011;62438;52.228;6.864;2022-10-19T00:06:47;19.08;;;5.85;;
74080;SDS011;62438;52.228;6.864;2022-10-19T00:08:47;15.82;;;5.45;;
74080;SDS011;62438;52.228;6.864;2022-10-19T00:10:48;15.95;;;5.78;;
74080;SDS011;62438;52.228;6.864;2022-10-19T00:12:48;17.17;;;6.10;;
74080;SDS011;62438;52.228;6.864;2022-10-19T00:14:49;15.75;;;5.43;;
74080;SDS011;62438;52.228;6.864;2022-10-19T00:16:51;16.10;;;5.97;;
74080;SDS011;62438;52.228;6.864;2022-10-19T00:18:54;13.05;;;6.32;;
74080;SDS011;62438;52.228;6.864;2022-10-19T00:21:05;11.75;;;5.40;;
74080;SDS011;62438;52.228;6.864;2022-10-19T00:23:07;17.08;;;5.75;;
74080;SDS011;62438;52.228;6.864;2022-10-19T00:25:10;15.70;;;6.25;;
74080;SDS011;62438;52.228;6.864;2022-10-19T00:27:11;16.17;;;5.57;;
74080;SDS011;62438;52.228;6.864;2022-10-19T00:29:12;19.38;;;7.55;;
74080;SDS011;62438;52.228;6.864;2022-10-19T00:31:14;20.55;;;6.22;;
74080;SDS011;62438;52.228;6.864;2022-10-19T00:33:16;18.17;;;5.75;;
74080;SDS011;62438;52.228;6.864;2022-10-19T00:35:20;15.80;;;6.60;;
74080;SDS011;62438;52.228;6.864;2022-10-19T00:37:21;18.70;;;7.20;;
74080;SDS011;62438;52.228;6.864;2022-10-19T00:39:21;18.75;;;7.30;;
74080;SDS011;62438;52.228;6.864;2022-10-19T00:41:22;12.00;;;5.85;;
74080;SDS011;62438;52.228;6.864;2022-10-19T00:43:26;14.77;;;6.10;;
74080;SDS011;62438;52.228;6.864;2022-10-19T00:45:30;18.92;;;6.50;;
74080;SDS011;62438;52.228;6.864;2022-10-19T00:47:30;18.08;;;6.97;;
74080;SDS011;62438;52.228;6.864;2022-10-19T00:49:35;22.88;;;6.55;;
74080;SDS011;62438;52.228;6.864;2022-10-19T00:51:40;15.70;;;6.93;;
74080;SDS011;62438;52.228;6.864;2022-10-19T00:53:44;25.98;;;7.45;;
74080;SDS011;62438;52.228;6.864;2022-10-19T00:55:44;20.27;;;7.78;;
74080;SDS011;62438;52.228;6.864;2022-10-19T00:57:45;17.60;;;6.70;;
74080;SDS011;62438;52.228;6.864;2022-10-19T00:59:46;17.83;;;6.95;;
74080;SDS011;62438;52.228;6.864;2022-10-19T01:01:47;19.80;;;8.20;;
74080;SDS011;62438;52.228;6.864;2022-10-19T01:03:48;22.25;;;7.57;;
74080;SDS011;62438;52.228;6.864;2022-10-19T01:05:49;20.15;;;7.30;;
74080;SDS011;62438;52.228;6.864;2022-10-19T01:07:50;17.23;;;6.97;;
74080;SDS011;62438;52.228;6.864;2022-10-19T01:09:51;16.40;;;6.43;;
74080;SDS011;62438;52.228;6.864;2022-10-19T01:12:15;17.42;;;6.50;;
74080;SDS011;62438;52.228;6.864;2022-10-19T01:21:50;14.07;;;5.25;;
74080;SDS011;62438;52.228;6.864;2022-10-19T01:26:34;13.40;;;5.43;;
74080;SDS011;62438;52.228;6.864;2022-10-19T01:37:21;17.80;;;6.57;;
74080;SDS011;62438;52.228;6.864;2022-10-19T01:42:01;16.15;;;6.05;;
74080;SDS011;62438;52.228;6.864;2022-10-19T01:44:26;18.13;;;5.88;;
74080;SDS011;62438;52.228;6.864;2022-10-19T01:46:35;25.55;;;6.25;;
74080;SDS011;62438;52.228;6.864;2022-10-19T01:48:42;16.48;;;5.78;;
74080;SDS011;62438;52.228;6.864;2022-10-19T01:50:53;12.75;;;5.72;;
74080;SDS011;62438;52.228;6.864;2022-10-19T01:52:59;13.00;;;5.32;;
74080;SDS011;62438;52.228;6.864;2022-10-19T01:55:02;13.10;;;5.88;;
74080;SDS011;62438;52.228;6.864;2022-10-19T01:57:04;17.42;;;6.15;;
74080;SDS011;62438;52.228;6.864;2022-10-19T01:59:07;20.45;;;6.32;;
74080;SDS011;62438;52.228;6.864;2022-10-19T02:01:10;15.05;;;5.80;;
74080;SDS011;62438;52.228;6.864;2022-10-19T02:03:14;17.50;;;6.15;;
74080;SDS011;62438;52.228;6.864;2022-10-19T02:05:17;17.10;;;6.10;;
74080;SDS011;62438;52.228;6.864;2022-10-19T02:07:21;16.55;;;6.15;;
74080;SDS011;62438;52.228;6.864;2022-10-19T02:09:23;13.95;;;6.25;;
74080;SDS011;62438;52.228;6.864;2022-10-19T02:11:24;14.25;;;6.47;;
74080;SDS011;62438;52.228;6.864;2022-10-19T02:13:24;17.15;;;6.18;;
74080;SDS011;62438;52.228;6.864;2022-10-19T02:15:26;15.52;;;5.53;;
74080;SDS011;62438;52.228;6.864;2022-10-19T02:17:31;12.35;;;4.85;;
74080;SDS011;62438;52.228;6.864;2022-10-19T02:19:37;13.38;;;5.05;;
74080;SDS011;62438;52.228;6.864;2022-10-19T02:21:37;12.32;;;4.90;;
74080;SDS011;62438;52.228;6.864;2022-10-19T02:23:38;11.80;;;4.45;;
74080;SDS011;62438;52.228;6.864;2022-10-19T02:25:39;14.90;;;5.32;;
74080;SDS011;62438;52.228;6.864;2022-10-19T02:27:39;12.50;;;5.32;;
74080;SDS011;62438;52.228;6.864;2022-10-19T02:29:43;10.80;;;4.75;;
74080;SDS011;62438;52.228;6.864;2022-10-19T02:31:43;15.15;;;4.60;;
74080;SDS011;62438;52.228;6.864;2022-10-19T02:33:44;10.27;;;4.50;;
74080;SDS011;62438;52.228;6.864;2022-10-19T02:35:44;13.18;;;4.65;;
74080;SDS011;62438;52.228;6.864;2022-10-19T02:37:45;13.70;;;4.47;;
74080;SDS011;62438;52.228;6.864;2022-10-19T02:39:46;19.52;;;4.70;;
74080;SDS011;62438;52.228;6.864;2022-10-19T02:41:48;12.70;;;4.97;;
74080;SDS011;62438;52.228;6.864;2022-10-19T02:43:55;9.70;;;4.22;;
74080;SDS011;62438;52.228;6.864;2022-10-19T02:46:04;10.45;;;4.35;;
74080;SDS011;62438;52.228;6.864;2022-10-19T02:48:29;12.10;;;4.25;;
74080;SDS011;62438;52.228;6.864;2022-10-19T02:50:32;11.73;;;4.20;;
74080;SDS011;62438;52.228;6.864;2022-10-19T02:52:33;13.13;;;4.68;;
74080;SDS011;62438;52.228;6.864;2022-10-19T02:54:39;15.48;;;4.65;;
74080;SDS011;62438;52.228;6.864;2022-10-19T02:56:41;12.48;;;4.50;;
74080;SDS011;62438;52.228;6.864;2022-10-19T02:58:42;12.05;;;4.43;;
74080;SDS011;62438;52.228;6.864;2022-10-19T03:00:42;12.55;;;4.43;;
74080;SDS011;62438;52.228;6.864;2022-10-19T03:02:42;12.32;;;4.40;;
74080;SDS011;62438;52.228;6.864;2022-10-19T03:04:43;11.20;;;4.53;;
74080;SDS011;62438;52.228;6.864;2022-10-19T03:06:44;11.57;;;4.50;;
74080;SDS011;62438;52.228;6.864;2022-10-19T03:08:45;11.40;;;4.20;;
74080;SDS011;62438;52.228;6.864;2022-10-19T03:10:46;17.30;;;5.10;;
74080;SDS011;62438;52.228;6.864;2022-10-19T03:12:46;12.48;;;4.55;;
74080;SDS011;62438;52.228;6.864;2022-10-19T03:14:46;15.27;;;4.55;;
74080;SDS011;62438;52.228;6.864;2022-10-19T03:16:47;12.80;;;4.55;;
74080;SDS011;62438;52.228;6.864;2022-10-19T03:18:48;12.88;;;4.80;;
74080;SDS011;62438;52.228;6.864;2022-10-19T03:20:48;16.42;;;5.07;;
74080;SDS011;62438;52.228;6.864;2022-10-19T03:22:49;14.05;;;4.40;;
74080;SDS011;62438;52.228;6.864;2022-10-19T03:24:49;11.27;;;4.38;;
74080;SDS011;62438;52.228;6.864;2022-10-19T03:26:50;12.43;;;4.63;;
74080;SDS011;62438;52.228;6.864;2022-10-19T03:28:50;11.48;;;4.97;;
74080;SDS011;62438;52.228;6.864;2022-10-19T03:30:51;15.48;;;5.05;;
74080;SDS011;62438;52.228;6.864;2022-10-19T03:32:51;14.27;;;4.93;;
74080;SDS011;62438;52.228;6.864;2022-10-19T03:34:52;13.98;;;4.65;;
74080;SDS011;62438;52.228;6.864;2022-10-19T03:36:52;15.30;;;4.88;;
74080;SDS011;62438;52.228;6.864;2022-10-19T03:38:53;11.23;;;4.82;;
74080;SDS011;62438;52.228;6.864;2022-10-19T03:40:55;12.27;;;5.03;;
74080;SDS011;62438;52.228;6.864;2022-10-19T03:42:56;11.35;;;4.65;;
74080;SDS011;62438;52.228;6.864;2022-10-19T03:44:56;13.80;;;5.10;;
74080;SDS011;62438;52.228;6.864;2022-10-19T03:46:56;16.05;;;4.93;;
74080;SDS011;62438;52.228;6.864;2022-10-19T03:48:57;11.95;;;4.90;;
74080;SDS011;62438;52.228;6.864;2022-10-19T03:51:02;17.98;;;5.00;;
74080;SDS011;62438;52.228;6.864;2022-10-19T03:53:08;12.77;;;5.03;;
74080;SDS011;62438;52.228;6.864;2022-10-19T03:55:08;12.75;;;5.10;;
74080;SDS011;62438;52.228;6.864;2022-10-19T03:57:12;16.65;;;4.60;;
74080;SDS011;62438;52.228;6.864;2022-10-19T03:59:13;11.27;;;4.55;;
74080;SDS011;62438;52.228;6.864;2022-10-19T04:01:16;13.68;;;5.10;;
74080;SDS011;62438;52.228;6.864;2022-10-19T04:03:20;14.43;;;4.88;;
74080;SDS011;62438;52.228;6.864;2022-10-19T04:05:23;11.68;;;4.70;;
74080;SDS011;62438;52.228;6.864;2022-10-19T04:07:24;12.57;;;4.70;;
74080;SDS011;62438;52.228;6.864;2022-10-19T04:09:24;10.93;;;4.63;;
74080;SDS011;62438;52.228;6.864;2022-10-19T04:11:26;15.27;;;4.72;;
74080;SDS011;62438;52.228;6.864;2022-10-19T04:13:28;13.70;;;4.35;;
74080;SDS011;62438;52.228;6.864;2022-10-19T04:15:29;14.13;;;4.63;;
74080;SDS011;62438;52.228;6.864;2022-10-19T04:17:29;12.23;;;4.75;;
74080;SDS011;62438;52.228;6.864;2022-10-19T04:19:30;11.38;;;4.47;;
74080;SDS011;62438;52.228;6.864;2022-10-19T04:21:35;14.23;;;4.55;;
74080;SDS011;62438;52.228;6.864;2022-10-19T04:23:36;13.80;;;4.70;;
74080;SDS011;62438;52.228;6.864;2022-10-19T04:25:37;10.93;;;4.88;;
74080;SDS011;62438;52.228;6.864;2022-10-19T04:27:38;13.70;;;4.57;;
74080;SDS011;62438;52.228;6.864;2022-10-19T04:29:41;15.48;;;4.88;;
74080;SDS011;62438;52.228;6.864;2022-10-19T04:31:42;12.63;;;4.30;;
74080;SDS011;62438;52.228;6.864;2022-10-19T04:33:42;14.10;;;5.45;;
74080;SDS011;62438;52.228;6.864;2022-10-19T04:35:43;13.75;;;4.93;;
74080;SDS011;62438;52.228;6.864;2022-10-19T04:37:43;13.77;;;5.07;;
74080;SDS011;62438;52.228;6.864;2022-10-19T04:39:44;12.68;;;5.18;;
74080;SDS011;62438;52.228;6.864;2022-10-19T04:41:44;11.05;;;4.55;;
74080;SDS011;62438;52.228;6.864;2022-10-19T04:43:45;14.55;;;5.25;;
74080;SDS011;62438;52.228;6.864;2022-10-19T04:45:46;17.40;;;5.70;;
74080;SDS011;62438;52.228;6.864;2022-10-19T04:47:46;15.38;;;5.85;;
74080;SDS011;62438;52.228;6.864;2022-10-19T04:49:46;13.45;;;6.22;;
74080;SDS011;62438;52.228;6.864;2022-10-19T04:51:47;13.40;;;5.70;;
74080;SDS011;62438;52.228;6.864;2022-10-19T04:53:47;15.43;;;6.05;;
74080;SDS011;62438;52.228;6.864;2022-10-19T04:55:48;11.85;;;5.47;;
74080;SDS011;62438;52.228;6.864;2022-10-19T04:57:48;17.73;;;6.05;;
74080;SDS011;62438;52.228;6.864;2022-10-19T04:59:49;14.23;;;5.70;;
74080;SDS011;62438;52.228;6.864;2022-10-19T05:01:49;13.02;;;5.80;;
74080;SDS011;62438;52.228;6.864;2022-10-19T05:03:55;10.43;;;4.97;;
74080;SDS011;62438;52.228;6.864;2022-10-19T05:05:57;12.68;;;5.13;;
74080;SDS011;62438;52.228;6.864;2022-10-19T05:07:58;10.98;;;4.93;;
74080;SDS011;62438;52.228;6.864;2022-10-19T05:09:59;15.48;;;5.30;;
74080;SDS011;62438;52.228;6.864;2022-10-19T05:11:59;10.60;;;4.82;;
74080;SDS011;62438;52.228;6.864;2022-10-19T05:14:00;13.02;;;5.30;;
74080;SDS011;62438;52.228;6.864;2022-10-19T05:16:01;13.85;;;4.72;;
74080;SDS011;62438;52.228;6.864;2022-10-19T05:18:03;12.60;;;4.90;;
74080;SDS011;62438;52.228;6.864;2022-10-19T05:20:04;14.23;;;4.53;;
74080;SDS011;62438;52.228;6.864;2022-10-19T05:22:05;13.50;;;4.85;;
74080;SDS011;62438;52.228;6.864;2022-10-19T05:24:05;10.38;;;4.45;;
74080;SDS011;62438;52.228;6.864;2022-10-19T05:28:10;11.15;;;4.60;;
74080;SDS011;62438;52.228;6.864;2022-10-19T05:30:11;11.90;;;4.18;;
74080;SDS011;62438;52.228;6.864;2022-10-19T05:32:13;12.27;;;4.90;;
74080;SDS011;62438;52.228;6.864;2022-10-19T05:34:14;18.23;;;4.68;;
74080;SDS011;62438;52.228;6.864;2022-10-19T05:36:24;10.10;;;4.50;;
74080;SDS011;62438;52.228;6.864;2022-10-19T05:38:28;13.57;;;4.40;;
74080;SDS011;62438;52.228;6.864;2022-10-19T05:40:28;10.73;;;4.25;;
74080;SDS011;62438;52.228;6.864;2022-10-19T05:42:29;12.35;;;5.10;;
74080;SDS011;62438;52.228;6.864;2022-10-19T05:44:29;13.50;;;5.20;;
74080;SDS011;62438;52.228;6.864;2022-10-19T05:46:30;13.48;;;5.18;;
74080;SDS011;62438;52.228;6.864;2022-10-19T05:48:31;17.58;;;5.80;;
74080;SDS011;62438;52.228;6.864;2022-10-19T05:50:32;14.30;;;5.28;;
74080;SDS011;62438;52.228;6.864;2022-10-19T05:52:33;15.02;;;5.50;;
74080;SDS011;62438;52.228;6.864;2022-10-19T05:54:33;12.70;;;5.32;;
74080;SDS011;62438;52.228;6.864;2022-10-19T05:56:35;13.75;;;5.03;;
74080;SDS011;62438;52.228;6.864;2022-10-19T05:58:35;12.93;;;4.95;;
74080;SDS011;62438;52.228;6.864;2022-10-19T06:00:36;11.60;;;4.30;;
74080;SDS011;62438;52.228;6.864;2022-10-19T06:02:36;12.98;;;4.28;;
74080;SDS011;62438;52.228;6.864;2022-10-19T06:04:37;16.40;;;5.05;;
74080;SDS011;62438;52.228;6.864;2022-10-19T06:06:37;13.00;;;4.88;;
74080;SDS011;62438;52.228;6.864;2022-10-19T06:08:37;12.85;;;4.68;;
74080;SDS011;62438;52.228;6.864;2022-10-19T06:10:38;18.17;;;4.80;;
74080;SDS011;62438;52.228;6.864;2022-10-19T06:12:39;18.98;;;4.78;;
74080;SDS011;62438;52.228;6.864;2022-10-19T06:14:39;17.55;;;4.80;;
74080;SDS011;62438;52.228;6.864;2022-10-19T06:16:40;16.02;;;4.80;;
74080;SDS011;62438;52.228;6.864;2022-10-19T06:18:40;12.82;;;4.53;;
74080;SDS011;62438;52.228;6.864;2022-10-19T06:20:41;13.43;;;4.88;;
74080;SDS011;62438;52.228;6.864;2022-10-19T06:22:41;13.55;;;4.97;;
74080;SDS011;62438;52.228;6.864;2022-10-19T06:24:42;15.63;;;5.43;;
74080;SDS011;62438;52.228;6.864;2022-10-19T06:26:42;21.20;;;5.53;;
74080;SDS011;62438;52.228;6.864;2022-10-19T06:28:43;13.68;;;5.38;;
74080;SDS011;62438;52.228;6.864;2022-10-19T06:30:43;12.60;;;5.00;;
74080;SDS011;62438;52.228;6.864;2022-10-19T06:32:44;14.30;;;4.65;;
74080;SDS011;62438;52.228;6.864;2022-10-19T06:34:44;13.10;;;5.05;;
74080;SDS011;62438;52.228;6.864;2022-10-19T06:36:45;15.40;;;5.30;;
74080;SDS011;62438;52.228;6.864;2022-10-19T06:38:45;20.90;;;5.55;;
74080;SDS011;62438;52.228;6.864;2022-10-19T06:40:46;15.07;;;5.32;;
74080;SDS011;62438;52.228;6.864;2022-10-19T06:42:48;16.55;;;5.30;;
74080;SDS011;62438;52.228;6.864;2022-10-19T06:44:48;13.60;;;5.28;;
74080;SDS011;62438;52.228;6.864;2022-10-19T06:46:49;16.38;;;5.80;;
74080;SDS011;62438;52.228;6.864;2022-10-19T06:48:53;11.80;;;4.53;;
74080;SDS011;62438;52.228;6.864;2022-10-19T06:50:58;13.60;;;5.20;;
74080;SDS011;62438;52.228;6.864;2022-10-19T06:53:02;16.08;;;5.13;;
74080;SDS011;62438;52.228;6.864;2022-10-19T06:55:03;15.05;;;5.22;;
74080;SDS011;62438;52.228;6.864;2022-10-19T06:57:04;18.15;;;5.20;;
74080;SDS011;62438;52.228;6.864;2022-10-19T06:59:04;18.60;;;5.65;;
74080;SDS011;62438;52.228;6.864;2022-10-19T07:01:05;14.43;;;5.97;;
74080;SDS011;62438;52.228;6.864;2022-10-19T07:03:07;15.73;;;5.70;;
74080;SDS011;62438;52.228;6.864;2022-10-19T07:05:07;16.33;;;5.85;;
74080;SDS011;62438;52.228;6.864;2022-10-19T07:07:09;16.23;;;5.63;;
74080;SDS011;62438;52.228;6.864;2022-10-19T07:09:09;13.25;;;6.07;;
74080;SDS011;62438;52.228;6.864;2022-10-19T07:11:11;14.30;;;5.20;;
74080;SDS011;62438;52.228;6.864;2022-10-19T07:13:14;15.18;;;5.05;;
74080;SDS011;62438;52.228;6.864;2022-10-19T07:15:15;14.93;;;5.30;;
74080;SDS011;62438;52.228;6.864;2022-10-19T07:17:16;15.75;;;5.93;;
74080;SDS011;62438;52.228;6.864;2022-10-19T07:19:16;27.60;;;5.93;;
74080;SDS011;62438;52.228;6.864;2022-10-19T07:21:18;19.58;;;6.15;;
74080;SDS011;62438;52.228;6.864;2022-10-19T07:23:20;16.10;;;5.63;;
74080;SDS011;62438;52.228;6.864;2022-10-19T07:25:20;18.23;;;7.43;;
74080;SDS011;62438;52.228;6.864;2022-10-19T07:27:21;19.63;;;6.30;;
74080;SDS011;62438;52.228;6.864;2022-10-19T07:29:21;19.83;;;6.07;;
74080;SDS011;62438;52.228;6.864;2022-10-19T07:31:22;17.42;;;6.65;;
74080;SDS011;62438;52.228;6.864;2022-10-19T07:33:23;21.73;;;6.80;;
74080;SDS011;62438;52.228;6.864;2022-10-19T07:35:24;18.73;;;6.75;;
74080;SDS011;62438;52.228;6.864;2022-10-19T07:37:24;16.48;;;5.82;;
74080;SDS011;62438;52.228;6.864;2022-10-19T07:39:25;25.52;;;6.95;;
74080;SDS011;62438;52.228;6.864;2022-10-19T07:41:26;20.88;;;6.90;;
74080;SDS011;62438;52.228;6.864;2022-10-19T07:43:27;13.98;;;6.40;;
74080;SDS011;62438;52.228;6.864;2022-10-19T07:45:31;19.55;;;6.93;;
74080;SDS011;62438;52.228;6.864;2022-10-19T07:47:32;23.35;;;6.90;;
74080;SDS011;62438;52.228;6.864;2022-10-19T07:49:33;22.58;;;8.00;;
74080;SDS011;62438;52.228;6.864;2022-10-19T07:51:34;18.20;;;6.95;;
74080;SDS011;62438;52.228;6.864;2022-10-19T07:53:36;16.25;;;6.78;;
74080;SDS011;62438;52.228;6.864;2022-10-19T07:55:37;16.00;;;6.57;;
74080;SDS011;62438;52.228;6.864;2022-10-19T07:57:37;15.65;;;6.13;;
74080;SDS011;62438;52.228;6.864;2022-10-19T07:59:37;16.02;;;6.20;;
74080;SDS011;62438;52.228;6.864;2022-10-19T08:01:39;14.95;;;6.38;;
74080;SDS011;62438;52.228;6.864;2022-10-19T08:03:44;17.40;;;6.68;;
74080;SDS011;62438;52.228;6.864;2022-10-19T08:05:45;19.73;;;7.40;;
74080;SDS011;62438;52.228;6.864;2022-10-19T08:07:45;17.98;;;7.30;;
74080;SDS011;62438;52.228;6.864;2022-10-19T08:09:46;19.60;;;7.28;;
74080;SDS011;62438;52.228;6.864;2022-10-19T08:11:46;27.00;;;7.32;;
74080;SDS011;62438;52.228;6.864;2022-10-19T08:13:46;23.13;;;6.45;;
74080;SDS011;62438;52.228;6.864;2022-10-19T08:15:47;16.92;;;6.32;;
74080;SDS011;62438;52.228;6.864;2022-10-19T08:17:48;16.95;;;5.57;;
74080;SDS011;62438;52.228;6.864;2022-10-19T08:19:48;18.25;;;6.65;;
74080;SDS011;62438;52.228;6.864;2022-10-19T08:21:49;14.45;;;5.32;;
74080;SDS011;62438;52.228;6.864;2022-10-19T08:23:50;17.15;;;5.38;;
74080;SDS011;62438;52.228;6.864;2022-10-19T08:25:50;14.88;;;4.72;;
74080;SDS011;62438;52.228;6.864;2022-10-19T08:27:51;14.95;;;4.60;;
74080;SDS011;62438;52.228;6.864;2022-10-19T08:29:51;11.23;;;4.00;;
74080;SDS011;62438;52.228;6.864;2022-10-19T08:31:52;14.20;;;4.13;;
74080;SDS011;62438;52.228;6.864;2022-10-19T08:33:53;13.90;;;3.70;;
74080;SDS011;62438;52.228;6.864;2022-10-19T08:35:54;10.18;;;3.55;;
74080;SDS011;62438;52.228;6.864;2022-10-19T08:37:54;10.73;;;3.47;;
74080;SDS011;62438;52.228;6.864;2022-10-19T08:39:56;11.45;;;3.80;;
74080;SDS011;62438;52.228;6.864;2022-10-19T08:46:24;10.82;;;3.72;;
74080;SDS011;62438;52.228;6.864;2022-10-19T08:48:35;13.20;;;3.13;;
74080;SDS011;62438;52.228;6.864;2022-10-19T08:50:39;14.05;;;3.05;;
74080;SDS011;62438;52.228;6.864;2022-10-19T08:52:42;9.90;;;2.92;;
74080;SDS011;62438;52.228;6.864;2022-10-19T08:56:56;8.00;;;2.15;;
74080;SDS011;62438;52.228;6.864;2022-10-19T08:59:32;9.43;;;2.72;;
74080;SDS011;62438;52.228;6.864;2022-10-19T09:01:49;9.85;;;2.90;;
74080;SDS011;62438;52.228;6.864;2022-10-19T09:08:28;10.90;;;2.50;;
74080;SDS011;62438;52.228;6.864;2022-10-19T09:10:30;6.63;;;1.95;;
74080;SDS011;62438;52.228;6.864;2022-10-19T09:12:41;7.85;;;2.15;;
74080;SDS011;62438;52.228;6.864;2022-10-19T09:14:54;13.35;;;2.72;;
74080;SDS011;62438;52.228;6.864;2022-10-19T09:17:05;9.07;;;3.13;;
74080;SDS011;62438;52.228;6.864;2022-10-19T09:19:22;7.78;;;2.30;;
74080;SDS011;62438;52.228;6.864;2022-10-19T09:21:26;11.02;;;2.40;;
74080;SDS011;62438;52.228;6.864;2022-10-19T09:25:39;11.60;;;2.13;;
74080;SDS011;62438;52.228;6.864;2022-10-19T09:27:40;9.35;;;1.50;;
74080;SDS011;62438;52.228;6.864;2022-10-19T09:29:46;11.40;;;1.98;;
74080;SDS011;62438;52.228;6.864;2022-10-19T09:31:50;9.38;;;1.70;;
74080;SDS011;62438;52.228;6.864;2022-10-19T09:33:54;11.88;;;2.30;;
74080;SDS011;62438;52.228;6.864;2022-10-19T09:36:02;15.05;;;1.73;;
74080;SDS011;62438;52.228;6.864;2022-10-19T09:38:05;7.75;;;1.42;;
74080;SDS011;62438;52.228;6.864;2022-10-19T09:40:09;9.57;;;1.75;;
74080;SDS011;62438;52.228;6.864;2022-10-19T09:42:19;8.90;;;1.75;;
74080;SDS011;62438;52.228;6.864;2022-10-19T09:44:24;8.43;;;1.60;;
74080;SDS011;62438;52.228;6.864;2022-10-19T09:46:27;8.40;;;2.25;;
74080;SDS011;62438;52.228;6.864;2022-10-19T09:48:39;11.45;;;1.90;;
74080;SDS011;62438;52.228;6.864;2022-10-19T09:50:48;7.65;;;1.45;;
74080;SDS011;62438;52.228;6.864;2022-10-19T09:53:03;11.23;;;2.03;;
74080;SDS011;62438;52.228;6.864;2022-10-19T09:55:05;8.55;;;1.50;;
74080;SDS011;62438;52.228;6.864;2022-10-19T09:57:23;7.32;;;1.35;;
74080;SDS011;62438;52.228;6.864;2022-10-19T09:59:24;11.13;;;1.83;;
74080;SDS011;62438;52.228;6.864;2022-10-19T10:05:38;10.13;;;1.52;;
74080;SDS011;62438;52.228;6.864;2022-10-19T10:07:40;12.45;;;1.80;;
74080;SDS011;62438;52.228;6.864;2022-10-19T10:09:41;9.38;;;2.58;;
74080;SDS011;62438;52.228;6.864;2022-10-19T10:11:45;7.43;;;1.75;;
74080;SDS011;62438;52.228;6.864;2022-10-19T10:13:49;9.43;;;1.88;;
74080;SDS011;62438;52.228;6.864;2022-10-19T10:15:59;10.63;;;1.98;;
74080;SDS011;62438;52.228;6.864;2022-10-19T10:18:02;7.40;;;1.35;;
74080;SDS011;62438;52.228;6.864;2022-10-19T10:20:05;13.68;;;2.20;;
74080;SDS011;62438;52.228;6.864;2022-10-19T10:22:25;10.93;;;1.83;;
74080;SDS011;62438;52.228;6.864;2022-10-19T10:24:29;11.57;;;2.17;;
74080;SDS011;62438;52.228;6.864;2022-10-19T10:26:30;9.88;;;1.80;;
74080;SDS011;62438;52.228;6.864;2022-10-19T10:28:37;8.15;;;1.95;;
74080;SDS011;62438;52.228;6.864;2022-10-19T10:30:47;11.85;;;1.80;;
74080;SDS011;62438;52.228;6.864;2022-10-19T10:32:52;9.07;;;1.80;;
74080;SDS011;62438;52.228;6.864;2022-10-19T10:34:55;9.77;;;1.60;;
74080;SDS011;62438;52.228;6.864;2022-10-19T10:37:17;9.15;;;2.00;;
74080;SDS011;62438;52.228;6.864;2022-10-19T10:39:20;8.48;;;1.77;;
74080;SDS011;62438;52.228;6.864;2022-10-19T10:41:23;12.30;;;1.95;;
74080;SDS011;62438;52.228;6.864;2022-10-19T10:43:32;9.20;;;1.90;;
74080;SDS011;62438;52.228;6.864;2022-10-19T10:45:45;10.07;;;1.75;;
74080;SDS011;62438;52.228;6.864;2022-10-19T10:47:47;11.40;;;2.03;;
74080;SDS011;62438;52.228;6.864;2022-10-19T10:49:55;6.53;;;1.95;;
74080;SDS011;62438;52.228;6.864;2022-10-19T10:52:11;10.55;;;1.70;;
74080;SDS011;62438;52.228;6.864;2022-10-19T10:56:24;10.10;;;2.08;;
74080;SDS011;62438;52.228;6.864;2022-10-19T11:00:34;10.77;;;2.00;;
74080;SDS011;62438;52.228;6.864;2022-10-19T11:02:47;5.63;;;1.73;;
74080;SDS011;62438;52.228;6.864;2022-10-19T11:05:09;7.60;;;1.90;;
74080;SDS011;62438;52.228;6.864;2022-10-19T11:07:20;8.07;;;2.03;;
74080;SDS011;62438;52.228;6.864;2022-10-19T11:09:40;7.65;;;2.60;;
74080;SDS011;62438;52.228;6.864;2022-10-19T11:11:44;7.97;;;1.63;;
74080;SDS011;62438;52.228;6.864;2022-10-19T11:13:51;8.20;;;1.70;;
74080;SDS011;62438;52.228;6.864;2022-10-19T11:15:59;8.82;;;1.42;;
74080;SDS011;62438;52.228;6.864;2022-10-19T11:20:28;13.77;;;1.80;;
74080;SDS011;62438;52.228;6.864;2022-10-19T11:22:39;10.88;;;2.10;;
74080;SDS011;62438;52.228;6.864;2022-10-19T11:31:48;8.40;;;2.03;;
74080;SDS011;62438;52.228;6.864;2022-10-19T11:34:02;10.02;;;2.40;;
74080;SDS011;62438;52.228;6.864;2022-10-19T11:40:44;10.23;;;2.40;;
74080;SDS011;62438;52.228;6.864;2022-10-19T11:47:38;12.25;;;2.20;;
74080;SDS011;62438;52.228;6.864;2022-10-19T11:52:36;10.55;;;2.40;;
74080;SDS011;62438;52.228;6.864;2022-10-19T11:54:55;9.32;;;2.40;;
74080;SDS011;62438;52.228;6.864;2022-10-19T11:57:21;11.75;;;2.40;;
74080;SDS011;62438;52.228;6.864;2022-10-19T12:01:41;7.93;;;2.30;;
74080;SDS011;62438;52.228;6.864;2022-10-19T12:10:46;9.95;;;2.38;;
74080;SDS011;62438;52.228;6.864;2022-10-19T12:13:04;8.43;;;2.30;;
74080;SDS011;62438;52.228;6.864;2022-10-19T12:17:13;15.23;;;2.33;;
74080;SDS011;62438;52.228;6.864;2022-10-19T12:19:20;7.10;;;2.20;;
74080;SDS011;62438;52.228;6.864;2022-10-19T12:21:27;10.77;;;2.00;;
74080;SDS011;62438;52.228;6.864;2022-10-19T12:23:33;5.80;;;2.22;;
74080;SDS011;62438;52.228;6.864;2022-10-19T12:25:36;9.43;;;2.30;;
74080;SDS011;62438;52.228;6.864;2022-10-19T12:27:40;10.38;;;2.20;;
74080;SDS011;62438;52.228;6.864;2022-10-19T12:29:43;6.78;;;1.50;;
74080;SDS011;62438;52.228;6.864;2022-10-19T12:31:46;8.98;;;1.98;;
74080;SDS011;62438;52.228;6.864;2022-10-19T12:33:53;7.22;;;2.05;;
74080;SDS011;62438;52.228;6.864;2022-10-19T12:36:11;8.88;;;1.95;;
74080;SDS011;62438;52.228;6.864;2022-10-19T12:40:45;8.90;;;2.30;;
74080;SDS011;62438;52.228;6.864;2022-10-19T12:45:25;8.90;;;2.42;;
74080;SDS011;62438;52.228;6.864;2022-10-19T12:47:33;9.98;;;2.13;;
74080;SDS011;62438;52.228;6.864;2022-10-19T12:49:35;7.68;;;2.13;;
74080;SDS011;62438;52.228;6.864;2022-10-19T12:51:44;8.75;;;2.00;;
74080;SDS011;62438;52.228;6.864;2022-10-19T12:53:46;10.50;;;2.13;;
74080;SDS011;62438;52.228;6.864;2022-10-19T12:56:10;7.18;;;1.80;;
74080;SDS011;62438;52.228;6.864;2022-10-19T12:58:19;8.70;;;1.80;;
74080;SDS011;62438;52.228;6.864;2022-10-19T13:00:25;7.22;;;2.50;;
74080;SDS011;62438;52.228;6.864;2022-10-19T13:02:30;8.00;;;2.03;;
74080;SDS011;62438;52.228;6.864;2022-10-19T13:04:34;6.55;;;1.73;;
74080;SDS011;62438;52.228;6.864;2022-10-19T13:06:46;10.60;;;2.05;;
74080;SDS011;62438;52.228;6.864;2022-10-19T13:11:06;5.68;;;1.50;;
74080;SDS011;62438;52.228;6.864;2022-10-19T13:13:54;7.43;;;1.90;;
74080;SDS011;62438;52.228;6.864;2022-10-19T13:15:50;9.23;;;2.10;;
74080;SDS011;62438;52.228;6.864;2022-10-19T13:17:51;6.90;;;2.10;;
74080;SDS011;62438;52.228;6.864;2022-10-19T13:20:01;10.93;;;1.98;;
74080;SDS011;62438;52.228;6.864;2022-10-19T13:22:25;6.43;;;1.70;;
74080;SDS011;62438;52.228;6.864;2022-10-19T13:24:28;9.50;;;2.63;;
74080;SDS011;62438;52.228;6.864;2022-10-19T13:26:32;8.40;;;1.67;;
74080;SDS011;62438;52.228;6.864;2022-10-19T13:32:44;7.00;;;1.70;;
74080;SDS011;62438;52.228;6.864;2022-10-19T13:34:44;8.75;;;1.60;;
74080;SDS011;62438;52.228;6.864;2022-10-19T13:37:19;7.07;;;1.77;;
74080;SDS011;62438;52.228;6.864;2022-10-19T13:39:15;6.60;;;1.70;;
74080;SDS011;62438;52.228;6.864;2022-10-19T13:41:26;6.93;;;1.63;;
74080;SDS011;62438;52.228;6.864;2022-10-19T13:45:43;8.73;;;1.88;;
74080;SDS011;62438;52.228;6.864;2022-10-19T13:48:02;8.55;;;1.65;;
74080;SDS011;62438;52.228;6.864;2022-10-19T14:01:50;6.10;;;1.95;;